Time;durP1;ratioP1;P1;durP2;ratioP2;P2;SDS_P1;SDS_P2;PMS_P1;PMS_P2;Temp;Humidity;BMP_temperature;BMP_pressure;BME280_temperature;BME280_humidity;BME280_pressure;Samples;Min_cycle;Max_cycle;Signal;HPM_P1;HPM_P2
2023/02/17 00:02:00;;;;;;;;;;;10.30;99.90;;;;;;5068470;28;19932;-66
2023/02/17 00:04:29;;;;;;;;;;;10.20;99.90;;;;;;5065540;28;20333;-66
2023/02/17 00:06:55;;;;;;;;;;;10.20;99.90;;;;;;5061469;28;20359;-65
2023/02/17 00:09:21;;;;;;;;;;;10.20;99.90;;;;;;5062500;28;19921;-65
2023/02/17 00:11:46;;;;;;;;;;;10.30;99.90;;;;;;5061626;28;19923;-64
2023/02/17 00:14:12;;;;;;;;;;;10.30;99.90;;;;;;5063012;28;19920;-64
2023/02/17 00:16:39;;;;;;;;;;;10.30;99.90;;;;;;5064758;28;19921;-65
2023/02/17 00:19:22;;;;;;;;;;;10.20;99.90;;;;;;5063658;28;20296;-66
2023/02/17 00:21:58;;;;;;;;;;;10.20;99.90;;;;;;5068016;28;19916;-66
2023/02/17 00:24:27;;;;;;;;;;;10.10;99.90;;;;;;5068166;28;19917;-65
2023/02/17 00:26:53;;;;;;;;;;;10.00;99.90;;;;;;5068076;28;19912;-66
2023/02/17 00:29:19;;;;;;;;;;;9.90;99.90;;;;;;5068960;28;19996;-66
2023/02/17 00:31:45;;;;;;;;;;;9.90;99.90;;;;;;5064997;28;19963;-65
2023/02/17 00:34:11;;;;;;;;;;;9.80;99.90;;;;;;5065988;28;19982;-65
2023/02/17 00:36:37;;;;;;;;;;;9.80;99.90;;;;;;5066158;28;19912;-65
2023/02/17 00:39:03;;;;;;;;;;;9.80;99.90;;;;;;5054145;28;19913;-65
2023/02/17 00:41:29;;;;;;;;;;;9.90;99.90;;;;;;5074504;28;20311;-65
2023/02/17 00:43:55;;;;;;;;;;;10.00;99.90;;;;;;5084628;28;19913;-66
2023/02/17 00:46:20;;;;;;;;;;;10.10;99.90;;;;;;5082695;28;20454;-65
2023/02/17 00:48:47;;;;;;;;;;;9.90;99.90;;;;;;5082378;28;19916;-66
2023/02/17 00:51:13;;;;;;;;;;;9.90;99.90;;;;;;5095997;28;19912;-65
2023/02/17 00:53:40;;;;;;;;;;;10.00;99.90;;;;;;5093644;28;19908;-65
2023/02/17 00:56:06;;;;;;;;;;;9.90;99.90;;;;;;5087274;28;19913;-65
2023/02/17 00:58:32;;;;;;;;;;;9.80;99.90;;;;;;5094476;28;19991;-66
2023/02/17 01:00:58;;;;;;;;;;;9.90;99.90;;;;;;5089291;28;19920;-65
2023/02/17 01:03:24;;;;;;;;;;;9.80;99.90;;;;;;5086879;28;19908;-64
2023/02/17 01:05:50;;;;;;;;;;;9.80;99.90;;;;;;5076733;28;19912;-66
2023/02/17 01:08:16;;;;;;;;;;;9.90;99.90;;;;;;5092504;28;19909;-66
2023/02/17 01:10:42;;;;;;;;;;;9.90;99.90;;;;;;5078843;28;19912;-66
2023/02/17 01:13:09;;;;;;;;;;;10.00;99.90;;;;;;5082736;28;19974;-66
2023/02/17 01:15:40;;;;;;;;;;;10.00;99.90;;;;;;5067121;28;19919;-65
2023/02/17 01:18:06;;;;;;;;;;;9.90;99.90;;;;;;5064912;28;19940;-65
2023/02/17 01:20:36;;;;;;;;;;;10.00;99.90;;;;;;5080032;28;20359;-66
2023/02/17 01:23:02;;;;;;;;;;;10.00;99.90;;;;;;5064969;28;19939;-64
2023/02/17 01:25:27;;;;;;;;;;;10.00;99.90;;;;;;5064560;28;20527;-65
2023/02/17 01:27:53;;;;;;;;;;;10.10;99.90;;;;;;5055645;28;20282;-66
2023/02/17 01:30:19;;;;;;;;;;;10.10;99.90;;;;;;5066607;28;19921;-66
2023/02/17 01:32:44;;;;;;;;;;;10.10;99.90;;;;;;5068506;28;19917;-65
2023/02/17 01:35:10;;;;;;;;;;;10.10;99.90;;;;;;5049185;28;19923;-65
2023/02/17 01:37:36;;;;;;;;;;;10.00;99.90;;;;;;5067947;28;19916;-65
2023/02/17 01:40:02;;;;;;;;;;;10.00;99.90;;;;;;5074750;28;19943;-66
2023/02/17 01:42:28;;;;;;;;;;;10.00;99.90;;;;;;5063805;28;19913;-64
2023/02/17 01:45:12;;;;;;;;;;;10.10;99.90;;;;;;5066259;28;19923;-66
2023/02/17 01:47:38;;;;;;;;;;;10.20;99.90;;;;;;5070995;28;19943;-66
2023/02/17 01:50:04;;;;;;;;;;;10.10;99.90;;;;;;5062792;28;20021;-66
2023/02/17 01:52:30;;;;;;;;;;;10.10;99.90;;;;;;5065494;28;20606;-63
2023/02/17 01:55:02;;;;;;;;;;;10.00;99.90;;;;;;5064912;28;20002;-63
2023/02/17 01:57:29;;;;;;;;;;;9.90;99.90;;;;;;5085174;28;20409;-66
2023/02/17 01:59:55;;;;;;;;;;;9.90;99.90;;;;;;5063912;28;19962;-66
2023/02/17 02:02:21;;;;;;;;;;;9.90;99.90;;;;;;5053946;28;19928;-65
2023/02/17 02:04:49;;;;;;;;;;;9.80;99.90;;;;;;5062332;28;19917;-65
2023/02/17 02:07:20;;;;;;;;;;;10.00;99.90;;;;;;5060656;28;19925;-65
2023/02/17 02:09:49;;;;;;;;;;;10.10;99.90;;;;;;5057440;28;21283;-64
2023/02/17 02:12:15;;;;;;;;;;;9.90;99.90;;;;;;5061524;28;19995;-64
2023/02/17 02:14:41;;;;;;;;;;;10.00;99.90;;;;;;5056741;28;19928;-65
2023/02/17 02:17:10;;;;;;;;;;;9.80;99.90;;;;;;5061283;28;20298;-64
2023/02/17 02:19:54;;;;;;;;;;;9.80;99.90;;;;;;5060716;28;19939;-66
2023/02/17 02:22:38;;;;;;;;;;;9.80;99.90;;;;;;5065019;28;19916;-65
2023/02/17 02:25:07;;;;;;;;;;;9.80;99.90;;;;;;5064268;28;20393;-66
2023/02/17 02:27:51;;;;;;;;;;;9.80;99.90;;;;;;5064164;28;19916;-65
2023/02/17 02:30:43;;;;;;;;;;;9.80;99.90;;;;;;5067209;28;19917;-64
2023/02/17 02:33:15;;;;;;;;;;;9.70;99.90;;;;;;5058112;28;19942;-66
2023/02/17 02:36:10;;;;;;;;;;;9.70;99.90;;;;;;5065705;28;19967;-66
2023/02/17 02:38:39;;;;;;;;;;;9.60;99.90;;;;;;5015143;28;19914;-66
2023/02/17 02:41:08;;;;;;;;;;;9.60;99.90;;;;;;5094128;28;19912;-66
2023/02/17 02:43:34;;;;;;;;;;;9.60;99.90;;;;;;5088621;28;20378;-64
2023/02/17 02:46:00;;;;;;;;;;;9.60;99.90;;;;;;5088212;28;19927;-66
2023/02/17 02:48:26;;;;;;;;;;;9.60;99.90;;;;;;5085752;28;19913;-66
2023/02/17 02:51:04;;;;;;;;;;;9.50;99.90;;;;;;5093649;28;19963;-64
2023/02/17 02:53:30;;;;;;;;;;;9.60;99.90;;;;;;5080941;28;19928;-64
2023/02/17 02:56:19;;;;;;;;;;;9.60;99.90;;;;;;5090443;28;19908;-65
2023/02/17 02:59:03;;;;;;;;;;;9.50;99.90;;;;;;5085549;28;19913;-66
2023/02/17 03:01:33;;;;;;;;;;;9.60;99.90;;;;;;5086911;28;19916;-66
2023/02/17 03:04:02;;;;;;;;;;;9.60;99.90;;;;;;5089808;28;19912;-65
2023/02/17 03:06:51;;;;;;;;;;;9.60;99.90;;;;;;5092550;28;20380;-66
2023/02/17 03:09:21;;;;;;;;;;;9.70;99.90;;;;;;5079119;28;20026;-64
2023/02/17 03:11:47;;;;;;;;;;;9.60;99.90;;;;;;5067266;28;19912;-65
2023/02/17 03:14:15;;;;;;;;;;;9.60;99.90;;;;;;5066684;28;19921;-65
2023/02/17 03:16:41;;;;;;;;;;;9.70;99.90;;;;;;5067700;28;19916;-64
2023/02/17 03:19:07;;;;;;;;;;;9.60;99.90;;;;;;5054860;28;20227;-66
2023/02/17 03:21:38;;;;;;;;;;;9.60;99.90;;;;;;5070567;28;19927;-66
2023/02/17 03:24:04;;;;;;;;;;;9.60;99.90;;;;;;5069567;28;20301;-65
2023/02/17 03:26:29;;;;;;;;;;;9.60;99.90;;;;;;5069548;28;19936;-64
2023/02/17 03:28:55;;;;;;;;;;;9.60;99.90;;;;;;5067804;28;19913;-66
2023/02/17 03:31:24;;;;;;;;;;;9.60;99.90;;;;;;5065813;28;19925;-65
2023/02/17 03:33:49;;;;;;;;;;;9.60;99.90;;;;;;5065275;28;19917;-66
2023/02/17 03:36:15;;;;;;;;;;;9.70;99.90;;;;;;5069324;28;20336;-64
2023/02/17 03:38:41;;;;;;;;;;;9.70;99.90;;;;;;5072177;28;19921;-66
2023/02/17 03:41:07;;;;;;;;;;;9.80;99.90;;;;;;5070188;28;20413;-64
2023/02/17 03:43:34;;;;;;;;;;;9.90;99.90;;;;;;5067492;28;19947;-66
2023/02/17 03:45:59;;;;;;;;;;;9.80;99.90;;;;;;5068457;28;19973;-66
2023/02/17 03:48:25;;;;;;;;;;;9.80;99.90;;;;;;5066784;28;21864;-66
2023/02/17 03:50:51;;;;;;;;;;;9.90;99.90;;;;;;5063753;28;20429;-66
2023/02/17 03:53:16;;;;;;;;;;;9.90;99.90;;;;;;5083917;28;19920;-65
2023/02/17 03:55:42;;;;;;;;;;;10.00;99.90;;;;;;5066722;28;19917;-67
2023/02/17 03:58:08;;;;;;;;;;;10.00;99.90;;;;;;5066568;28;19923;-67
2023/02/17 04:00:33;;;;;;;;;;;10.00;99.90;;;;;;5056092;28;19923;-65
2023/02/17 04:02:59;;;;;;;;;;;10.10;99.90;;;;;;5068682;28;19942;-66
2023/02/17 04:05:25;;;;;;;;;;;10.00;99.90;;;;;;5069669;28;19928;-65
2023/02/17 04:07:50;;;;;;;;;;;9.90;99.90;;;;;;5069718;28;19920;-66
2023/02/17 04:10:16;;;;;;;;;;;9.80;99.90;;;;;;5053067;28;19917;-66
2023/02/17 04:12:42;;;;;;;;;;;10.00;99.90;;;;;;5073250;28;19993;-65
2023/02/17 04:15:08;;;;;;;;;;;9.90;99.90;;;;;;5079968;28;19921;-65
2023/02/17 04:17:35;;;;;;;;;;;9.90;99.90;;;;;;5066540;28;19913;-66
2023/02/17 04:20:00;;;;;;;;;;;10.00;99.90;;;;;;5071144;28;20011;-66
2023/02/17 04:22:26;;;;;;;;;;;10.10;99.90;;;;;;5037963;28;20417;-63
2023/02/17 04:24:52;;;;;;;;;;;10.20;99.90;;;;;;5067814;28;19952;-64
2023/02/17 04:27:17;;;;;;;;;;;10.10;99.90;;;;;;5074005;28;19915;-66
2023/02/17 04:29:43;;;;;;;;;;;9.90;99.90;;;;;;5074206;28;19956;-66
2023/02/17 04:32:09;;;;;;;;;;;9.90;99.90;;;;;;5067720;28;20424;-66
2023/02/17 04:34:34;;;;;;;;;;;9.80;99.90;;;;;;5067235;28;19943;-66
2023/02/17 04:37:00;;;;;;;;;;;9.80;99.90;;;;;;5072256;28;19927;-66
2023/02/17 04:39:26;;;;;;;;;;;9.80;99.90;;;;;;5070148;28;19962;-65
2023/02/17 04:41:51;;;;;;;;;;;9.80;99.90;;;;;;5064980;28;19915;-66
2023/02/17 04:44:17;;;;;;;;;;;9.80;99.90;;;;;;5089570;28;20067;-66
2023/02/17 04:46:43;;;;;;;;;;;9.70;99.90;;;;;;5070491;28;19908;-66
2023/02/17 04:49:09;;;;;;;;;;;9.60;99.90;;;;;;5090275;28;19908;-66
2023/02/17 04:51:34;;;;;;;;;;;9.50;99.90;;;;;;5068327;28;19935;-66
2023/02/17 04:54:00;;;;;;;;;;;9.60;99.90;;;;;;5070788;28;19915;-66
2023/02/17 04:56:26;;;;;;;;;;;9.60;99.90;;;;;;5067434;28;20008;-66
2023/02/17 04:58:51;;;;;;;;;;;9.60;99.90;;;;;;5085072;28;20306;-66
2023/02/17 05:01:17;;;;;;;;;;;9.70;99.90;;;;;;5081941;28;19958;-66
2023/02/17 05:03:43;;;;;;;;;;;9.60;99.90;;;;;;5087871;28;19913;-66
2023/02/17 05:06:09;;;;;;;;;;;9.60;99.90;;;;;;5080632;28;19908;-65
2023/02/17 05:08:34;;;;;;;;;;;9.70;99.90;;;;;;5076423;28;19909;-66
2023/02/17 05:11:00;;;;;;;;;;;9.80;99.90;;;;;;5086315;28;19912;-65
2023/02/17 05:13:26;;;;;;;;;;;9.90;99.90;;;;;;5066422;28;20294;-66
2023/02/17 05:15:52;;;;;;;;;;;9.90;99.90;;;;;;5065225;28;21423;-66
2023/02/17 05:18:17;;;;;;;;;;;9.90;99.90;;;;;;5066083;28;19913;-65
2023/02/17 05:20:43;;;;;;;;;;;10.00;99.90;;;;;;5063443;28;19913;-65
2023/02/17 05:23:09;;;;;;;;;;;9.90;99.90;;;;;;5061999;28;19927;-65
2023/02/17 05:25:34;;;;;;;;;;;9.90;99.90;;;;;;5062186;28;19955;-66
2023/02/17 05:28:00;;;;;;;;;;;9.90;99.90;;;;;;5061301;28;20396;-65
2023/02/17 05:30:26;;;;;;;;;;;9.90;99.90;;;;;;5060285;28;19972;-65
2023/02/17 05:32:52;;;;;;;;;;;9.90;99.90;;;;;;5063195;28;19927;-65
2023/02/17 05:35:17;;;;;;;;;;;9.90;99.90;;;;;;5078497;28;19984;-65
2023/02/17 05:37:43;;;;;;;;;;;9.90;99.90;;;;;;5069591;28;19931;-66
2023/02/17 05:40:09;;;;;;;;;;;9.90;99.90;;;;;;5062185;28;19916;-66
2023/02/17 05:42:34;;;;;;;;;;;10.00;99.90;;;;;;5063859;28;19986;-65
2023/02/17 05:45:03;;;;;;;;;;;10.10;99.90;;;;;;5066325;28;19984;-66
2023/02/17 05:47:29;;;;;;;;;;;10.20;99.90;;;;;;5084092;28;19913;-64
2023/02/17 05:49:55;;;;;;;;;;;10.10;99.90;;;;;;5061583;28;20294;-66
2023/02/17 05:52:20;;;;;;;;;;;10.00;99.90;;;;;;5064400;28;20014;-63
2023/02/17 05:54:46;;;;;;;;;;;10.00;99.90;;;;;;5064536;28;19919;-64
2023/02/17 05:57:12;;;;;;;;;;;9.90;99.90;;;;;;5070252;28;19913;-64
2023/02/17 05:59:37;;;;;;;;;;;9.70;99.90;;;;;;5064610;28;19912;-64
2023/02/17 06:02:03;;;;;;;;;;;9.80;99.90;;;;;;5086400;28;19913;-65
2023/02/17 06:04:29;;;;;;;;;;;9.70;99.90;;;;;;5066140;28;20297;-63
2023/02/17 06:06:54;;;;;;;;;;;9.60;99.90;;;;;;5064346;28;19916;-65
2023/02/17 06:09:20;;;;;;;;;;;9.50;99.90;;;;;;5064104;28;19917;-65
2023/02/17 06:11:46;;;;;;;;;;;9.60;99.90;;;;;;5066371;28;19935;-66
2023/02/17 06:14:14;;;;;;;;;;;9.40;99.90;;;;;;5074526;28;19913;-65
2023/02/17 06:16:39;;;;;;;;;;;9.40;99.90;;;;;;5068250;28;19920;-66
2023/02/17 06:19:05;;;;;;;;;;;9.60;99.90;;;;;;5072259;28;20177;-66
2023/02/17 06:21:31;;;;;;;;;;;9.70;99.90;;;;;;5070224;28;19921;-63
2023/02/17 06:23:56;;;;;;;;;;;9.80;99.90;;;;;;5071486;28;19921;-66
2023/02/17 06:26:22;;;;;;;;;;;9.60;99.90;;;;;;5074271;28;20447;-64
2023/02/17 06:28:48;;;;;;;;;;;9.40;99.90;;;;;;5066118;28;19944;-66
2023/02/17 06:31:13;;;;;;;;;;;9.30;99.90;;;;;;5073525;28;20008;-63
2023/02/17 06:33:39;;;;;;;;;;;9.30;99.90;;;;;;5068548;28;19928;-66
2023/02/17 06:36:05;;;;;;;;;;;9.30;99.90;;;;;;5071925;28;19934;-66
2023/02/17 06:38:31;;;;;;;;;;;9.50;99.90;;;;;;5070051;28;20075;-65
2023/02/17 06:40:56;;;;;;;;;;;9.60;99.90;;;;;;5081018;28;19962;-65
2023/02/17 06:43:22;;;;;;;;;;;9.60;99.90;;;;;;5083443;28;19909;-66
2023/02/17 06:45:48;;;;;;;;;;;9.70;99.90;;;;;;5083696;28;19958;-65
2023/02/17 06:48:14;;;;;;;;;;;9.80;99.90;;;;;;5085033;28;19938;-65
2023/02/17 06:50:39;;;;;;;;;;;9.80;99.90;;;;;;5084380;28;19916;-65
2023/02/17 06:53:05;;;;;;;;;;;9.80;99.90;;;;;;5086429;28;19912;-66
2023/02/17 06:55:33;;;;;;;;;;;9.80;99.90;;;;;;5088277;28;19966;-66
2023/02/17 06:57:59;;;;;;;;;;;9.80;99.90;;;;;;5068813;28;20369;-66
2023/02/17 07:00:25;;;;;;;;;;;9.80;99.90;;;;;;5083880;28;19912;-66
2023/02/17 07:02:51;;;;;;;;;;;9.70;99.90;;;;;;5085185;28;19920;-65
2023/02/17 07:05:17;;;;;;;;;;;9.50;99.90;;;;;;5084420;28;19954;-66
2023/02/17 07:07:42;;;;;;;;;;;9.40;99.90;;;;;;5068702;28;19912;-66
2023/02/17 07:10:09;;;;;;;;;;;9.50;99.90;;;;;;5088995;28;19913;-66
2023/02/17 07:12:34;;;;;;;;;;;9.50;99.90;;;;;;5079983;28;19957;-66
2023/02/17 07:15:00;;;;;;;;;;;9.70;99.90;;;;;;5068856;28;19962;-65
2023/02/17 07:17:26;;;;;;;;;;;9.80;99.90;;;;;;5069185;28;19919;-66
2023/02/17 07:19:51;;;;;;;;;;;9.70;99.90;;;;;;5069544;28;19913;-66
2023/02/17 07:22:17;;;;;;;;;;;9.80;99.90;;;;;;5065778;28;19928;-65
2023/02/17 07:24:43;;;;;;;;;;;9.70;99.90;;;;;;5067326;28;19920;-65
2023/02/17 07:27:08;;;;;;;;;;;9.70;99.90;;;;;;5054066;28;20272;-66
2023/02/17 07:29:34;;;;;;;;;;;9.70;99.90;;;;;;5066810;28;19958;-65
2023/02/17 07:32:00;;;;;;;;;;;9.70;99.90;;;;;;5056529;28;19946;-66
2023/02/17 07:34:26;;;;;;;;;;;9.70;99.90;;;;;;5067935;28;19917;-65
2023/02/17 07:36:51;;;;;;;;;;;9.90;99.90;;;;;;5067503;28;19916;-65
2023/02/17 07:39:17;;;;;;;;;;;10.10;99.90;;;;;;5060685;28;19913;-66
2023/02/17 07:41:42;;;;;;;;;;;10.10;99.90;;;;;;5067451;28;19913;-66
2023/02/17 07:44:09;;;;;;;;;;;10.20;99.90;;;;;;5067147;28;20031;-66
2023/02/17 07:46:35;;;;;;;;;;;10.10;99.90;;;;;;5065736;28;20353;-63
2023/02/17 07:49:00;;;;;;;;;;;10.10;99.90;;;;;;5061036;28;19971;-66
2023/02/17 07:51:26;;;;;;;;;;;10.00;99.90;;;;;;5058077;28;19916;-66
2023/02/17 07:53:52;;;;;;;;;;;10.00;99.90;;;;;;5054420;28;19939;-65
2023/02/17 07:56:20;;;;;;;;;;;10.10;99.90;;;;;;5055302;28;20495;-66
2023/02/17 07:58:46;;;;;;;;;;;10.20;99.90;;;;;;5058053;28;19916;-66
2023/02/17 08:01:13;;;;;;;;;;;10.20;99.90;;;;;;5057981;28;20623;-66
2023/02/17 08:03:39;;;;;;;;;;;10.30;99.90;;;;;;5059159;28;20469;-64
2023/02/17 08:06:12;;;;;;;;;;;10.40;99.90;;;;;;5057613;28;19959;-66
2023/02/17 08:14:06;;;;;;;;;;;10.40;99.90;;;;;;5056839;28;19934;-67
2023/02/17 08:16:32;;;;;;;;;;;10.40;99.90;;;;;;5053690;28;19912;-65
2023/02/17 08:18:57;;;;;;;;;;;10.40;99.90;;;;;;5055446;28;19944;-66
2023/02/17 08:21:23;;;;;;;;;;;10.40;99.90;;;;;;5065538;28;20011;-65
2023/02/17 08:23:49;;;;;;;;;;;10.40;99.90;;;;;;5068493;28;19919;-64
2023/02/17 08:26:16;;;;;;;;;;;10.40;99.90;;;;;;5066189;28;20007;-65
2023/02/17 08:28:42;;;;;;;;;;;10.50;99.90;;;;;;5073724;28;19943;-65
2023/02/17 08:31:19;;;;;;;;;;;10.50;99.90;;;;;;5068048;28;19923;-67
2023/02/17 08:33:44;;;;;;;;;;;10.50;99.90;;;;;;5061907;28;19940;-67
2023/02/17 08:36:10;;;;;;;;;;;10.50;99.90;;;;;;5068909;28;19973;-65
2023/02/17 08:38:36;;;;;;;;;;;10.50;99.90;;;;;;5069630;28;20019;-67
2023/02/17 08:41:10;;;;;;;;;;;10.50;99.90;;;;;;5068405;28;20015;-66
2023/02/17 08:43:35;;;;;;;;;;;10.20;99.90;;;;;;5074151;28;20005;-66
2023/02/17 08:46:05;;;;;;;;;;;10.20;99.90;;;;;;5075064;28;20389;-65
2023/02/17 08:48:31;;;;;;;;;;;10.20;99.90;;;;;;5077389;28;20382;-67
2023/02/17 08:50:57;;;;;;;;;;;10.20;99.90;;;;;;5072939;28;19920;-66
2023/02/17 08:53:22;;;;;;;;;;;10.20;99.90;;;;;;5073288;28;19952;-64
2023/02/17 08:55:48;;;;;;;;;;;10.10;99.90;;;;;;5072720;28;19912;-68
2023/02/17 08:58:14;;;;;;;;;;;10.10;99.90;;;;;;5073241;28;19939;-68
2023/02/17 09:00:40;;;;;;;;;;;10.10;99.90;;;;;;5068766;28;19966;-66
2023/02/17 09:03:06;;;;;;;;;;;10.10;99.90;;;;;;5064241;28;20339;-70
2023/02/17 09:05:34;;;;;;;;;;;10.10;99.90;;;;;;5070331;28;20401;-67
2023/02/17 09:07:59;;;;;;;;;;;10.00;99.90;;;;;;5062177;28;20394;-66
2023/02/17 09:10:25;;;;;;;;;;;10.00;99.90;;;;;;5074167;28;19916;-68
2023/02/17 09:12:51;;;;;;;;;;;10.00;99.90;;;;;;5072915;28;19952;-67
2023/02/17 09:15:17;;;;;;;;;;;10.00;99.90;;;;;;5062321;28;20402;-69
2023/02/17 09:17:42;;;;;;;;;;;10.00;99.90;;;;;;5065769;28;20388;-68
2023/02/17 09:20:09;;;;;;;;;;;10.00;99.90;;;;;;5067991;28;19931;-68
2023/02/17 09:22:35;;;;;;;;;;;9.90;99.90;;;;;;5062957;28;19916;-66
2023/02/17 09:25:01;;;;;;;;;;;10.10;99.90;;;;;;5063932;28;19966;-65
2023/02/17 09:27:26;;;;;;;;;;;10.00;99.90;;;;;;5070629;28;20317;-67
2023/02/17 09:29:52;;;;;;;;;;;10.10;99.90;;;;;;5061895;28;20396;-65
2023/02/17 09:32:17;;;;;;;;;;;10.00;99.90;;;;;;5059270;28;19970;-66
2023/02/17 09:34:52;;;;;;;;;;;10.10;99.90;;;;;;5057554;28;21116;-67
2023/02/17 09:37:17;;;;;;;;;;;10.10;99.90;;;;;;5065511;28;19928;-67
2023/02/17 09:39:43;;;;;;;;;;;10.20;99.90;;;;;;5064902;28;20363;-65
2023/02/17 09:42:28;;;;;;;;;;;10.10;99.90;;;;;;5060887;28;19913;-68
2023/02/17 09:45:03;;;;;;;;;;;10.10;99.90;;;;;;5065335;28;19912;-65
2023/02/17 09:47:35;;;;;;;;;;;10.20;99.90;;;;;;5051202;28;19934;-68
2023/02/17 09:50:03;;;;;;;;;;;10.20;99.90;;;;;;5069482;28;19916;-67
2023/02/17 09:52:29;;;;;;;;;;;10.20;99.90;;;;;;5061106;28;20405;-67
2023/02/17 09:55:07;;;;;;;;;;;10.20;99.90;;;;;;5068878;28;19916;-66
2023/02/17 09:57:39;;;;;;;;;;;10.20;99.90;;;;;;5071555;28;19917;-66
2023/02/17 10:00:09;;;;;;;;;;;10.20;99.90;;;;;;5064627;28;20297;-67
2023/02/17 10:02:40;;;;;;;;;;;10.20;99.90;;;;;;5054023;28;19925;-66
2023/02/17 10:05:07;;;;;;;;;;;10.30;99.90;;;;;;5069731;28;20397;-64
2023/02/17 10:07:39;;;;;;;;;;;10.30;99.90;;;;;;5071054;28;19912;-67
2023/02/17 10:10:30;;;;;;;;;;;10.40;99.90;;;;;;5071637;28;20325;-68
2023/02/17 10:12:56;;;;;;;;;;;10.40;99.90;;;;;;5060577;28;19912;-68
2023/02/17 10:15:26;;;;;;;;;;;10.40;99.90;;;;;;5069268;28;19913;-65
2023/02/17 10:17:52;;;;;;;;;;;10.40;99.90;;;;;;5068806;28;19912;-67
2023/02/17 10:20:30;;;;;;;;;;;10.40;99.90;;;;;;5067354;28;19913;-68
2023/02/17 10:23:15;;;;;;;;;;;10.50;99.90;;;;;;5060257;28;19920;-67
2023/02/17 10:26:00;;;;;;;;;;;10.50;99.90;;;;;;5062930;28;19973;-65
2023/02/17 10:28:25;;;;;;;;;;;10.40;99.90;;;;;;5070550;28;20328;-65
2023/02/17 10:30:54;;;;;;;;;;;10.50;99.90;;;;;;5066986;28;19920;-63
2023/02/17 10:33:27;;;;;;;;;;;10.50;99.90;;;;;;5065748;28;20313;-67
2023/02/17 10:36:03;;;;;;;;;;;10.60;99.90;;;;;;5068744;28;20012;-65
2023/02/17 10:38:47;;;;;;;;;;;10.60;99.90;;;;;;5068482;28;20231;-68
2023/02/17 10:41:14;;;;;;;;;;;10.60;99.90;;;;;;5069926;28;20264;-69
2023/02/17 10:43:41;;;;;;;;;;;10.70;99.90;;;;;;5055778;28;19962;-68
2023/02/17 10:46:07;;;;;;;;;;;10.70;99.90;;;;;;5070474;28;20262;-67
2023/02/17 10:48:37;;;;;;;;;;;10.70;99.90;;;;;;5068989;28;19913;-66
2023/02/17 10:51:02;;;;;;;;;;;10.70;99.90;;;;;;5069436;28;20389;-67
2023/02/17 10:53:33;;;;;;;;;;;10.80;99.90;;;;;;5068539;28;19913;-66
2023/02/17 10:56:03;;;;;;;;;;;10.90;99.90;;;;;;5049506;28;19909;-68
2023/02/17 10:58:35;;;;;;;;;;;10.90;99.90;;;;;;5053287;28;19916;-67
2023/02/17 11:01:03;;;;;;;;;;;11.00;99.90;;;;;;5063762;28;20405;-68
2023/02/17 11:03:30;;;;;;;;;;;11.10;99.90;;;;;;5069936;28;20524;-66
2023/02/17 11:05:57;;;;;;;;;;;11.10;99.90;;;;;;5066189;28;19912;-68
2023/02/17 11:08:23;;;;;;;;;;;11.00;99.90;;;;;;5073346;28;20378;-70
2023/02/17 11:10:57;;;;;;;;;;;10.90;99.90;;;;;;5071813;28;19970;-67
2023/02/17 11:13:33;;;;;;;;;;;10.90;99.90;;;;;;5071333;28;19920;-67
2023/02/17 11:15:59;;;;;;;;;;;10.80;99.90;;;;;;5073383;28;20011;-68
2023/02/17 11:18:28;;;;;;;;;;;10.70;99.90;;;;;;5051927;28;20279;-66
2023/02/17 11:21:01;;;;;;;;;;;10.70;99.90;;;;;;5074062;28;19920;-65
2023/02/17 11:23:27;;;;;;;;;;;10.50;99.90;;;;;;5074652;28;20286;-68
2023/02/17 11:25:58;;;;;;;;;;;10.40;99.90;;;;;;5074100;28;19912;-66
2023/02/17 11:28:24;;;;;;;;;;;10.40;99.90;;;;;;5074619;28;19974;-67
2023/02/17 11:30:54;;;;;;;;;;;10.30;99.90;;;;;;5056429;28;19912;-64
2023/02/17 11:33:34;;;;;;;;;;;10.30;99.90;;;;;;5074398;28;19965;-66
2023/02/17 11:36:00;;;;;;;;;;;10.30;99.90;;;;;;5071112;28;19998;-66
2023/02/17 11:38:33;;;;;;;;;;;10.20;99.90;;;;;;5073057;28;20443;-64
2023/02/17 11:41:00;;;;;;;;;;;10.20;99.90;;;;;;5073437;28;19921;-66
2023/02/17 11:43:27;;;;;;;;;;;10.10;99.90;;;;;;5073209;28;19912;-67
2023/02/17 11:45:57;;;;;;;;;;;10.10;99.90;;;;;;5074839;28;19947;-66
2023/02/17 11:48:43;;;;;;;;;;;10.10;99.90;;;;;;5075055;28;19963;-68
2023/02/17 11:51:13;;;;;;;;;;;10.10;99.90;;;;;;5071441;28;20478;-68
2023/02/17 11:53:57;;;;;;;;;;;10.20;99.90;;;;;;5067119;28;19968;-67
2023/02/17 11:56:26;;;;;;;;;;;10.20;99.90;;;;;;5072718;28;19908;-67
2023/02/17 11:59:07;;;;;;;;;;;10.30;99.90;;;;;;5073517;28;19913;-66
2023/02/17 12:01:51;;;;;;;;;;;10.20;99.90;;;;;;5072081;28;19936;-67
2023/02/17 12:04:40;;;;;;;;;;;10.20;99.90;;;;;;5072877;28;19912;-67
2023/02/17 12:07:08;;;;;;;;;;;10.30;99.90;;;;;;5078971;28;19912;-67
2023/02/17 12:09:48;;;;;;;;;;;10.40;99.90;;;;;;5072797;28;20267;-67
2023/02/17 12:12:32;;;;;;;;;;;10.40;99.90;;;;;;5072502;28;20381;-68
2023/02/17 12:14:57;;;;;;;;;;;10.30;99.90;;;;;;5068844;28;19909;-68
2023/02/17 12:17:43;;;;;;;;;;;10.50;99.90;;;;;;5081827;28;19916;-67
2023/02/17 12:20:26;;;;;;;;;;;10.50;99.90;;;;;;5091183;28;19908;-68
2023/02/17 12:22:52;;;;;;;;;;;10.50;99.90;;;;;;5047222;28;19917;-68
2023/02/17 12:25:30;;;;;;;;;;;10.50;99.90;;;;;;5073100;28;19916;-67
2023/02/17 12:28:14;;;;;;;;;;;10.50;99.90;;;;;;5070982;28;20020;-68
2023/02/17 12:30:50;;;;;;;;;;;10.60;99.90;;;;;;5067178;28;20505;-68
2023/02/17 12:33:25;;;;;;;;;;;10.60;99.90;;;;;;5070608;28;19908;-65
2023/02/17 12:36:01;;;;;;;;;;;10.60;99.90;;;;;;5071967;28;20097;-65
2023/02/17 12:38:28;;;;;;;;;;;10.70;99.90;;;;;;5069789;28;20143;-65
2023/02/17 12:40:54;;;;;;;;;;;10.70;99.90;;;;;;5072153;28;19913;-68
2023/02/17 12:43:38;;;;;;;;;;;10.60;99.90;;;;;;5071745;28;19912;-67
2023/02/17 12:46:06;;;;;;;;;;;10.70;99.90;;;;;;5072914;28;19909;-67
2023/02/17 12:48:37;;;;;;;;;;;10.70;99.90;;;;;;5071490;28;19938;-66
2023/02/17 12:51:08;;;;;;;;;;;10.60;99.90;;;;;;5072181;28;19916;-68
2023/02/17 12:53:43;;;;;;;;;;;10.50;99.90;;;;;;5069873;28;19939;-66
2023/02/17 12:56:24;;;;;;;;;;;10.60;99.90;;;;;;5071116;28;19989;-66
2023/02/17 12:58:55;;;;;;;;;;;10.60;99.90;;;;;;5070945;28;19921;-67
2023/02/17 13:01:22;;;;;;;;;;;10.60;99.90;;;;;;5072422;28;19935;-71
2023/02/17 13:03:47;;;;;;;;;;;10.60;99.90;;;;;;5071262;28;20003;-67
2023/02/17 13:06:42;;;;;;;;;;;10.60;99.90;;;;;;5072971;28;19944;-66
2023/02/17 13:09:26;;;;;;;;;;;10.70;99.90;;;;;;5051768;28;19916;-67
2023/02/17 13:11:52;;;;;;;;;;;10.60;99.90;;;;;;5070814;28;19916;-69
2023/02/17 13:14:24;;;;;;;;;;;10.70;99.90;;;;;;5069623;28;19999;-67
2023/02/17 13:16:49;;;;;;;;;;;10.70;99.90;;;;;;5066331;28;19923;-67
2023/02/17 13:19:25;;;;;;;;;;;10.70;99.90;;;;;;5072390;28;20281;-68
2023/02/17 13:21:55;;;;;;;;;;;10.70;99.90;;;;;;5071607;28;20014;-68
2023/02/17 13:24:37;;;;;;;;;;;10.70;99.90;;;;;;5071627;28;19912;-69
2023/02/17 13:27:22;;;;;;;;;;;10.60;99.90;;;;;;5071661;28;19974;-68
2023/02/17 13:30:24;;;;;;;;;;;10.60;99.90;;;;;;5057331;28;19912;-68
2023/02/17 13:32:59;;;;;;;;;;;10.70;99.90;;;;;;5072391;28;19913;-68
2023/02/17 13:35:25;;;;;;;;;;;10.60;99.90;;;;;;5072222;28;19943;-68
2023/02/17 13:37:51;;;;;;;;;;;10.60;99.90;;;;;;5071509;28;20315;-68
2023/02/17 13:40:16;;;;;;;;;;;10.50;99.90;;;;;;5067759;28;20266;-68
2023/02/17 13:42:46;;;;;;;;;;;10.50;99.90;;;;;;5072114;28;19915;-67
2023/02/17 13:45:13;;;;;;;;;;;10.70;99.90;;;;;;5071836;28;20581;-67
2023/02/17 13:47:40;;;;;;;;;;;10.60;99.90;;;;;;5072365;28;19909;-67
2023/02/17 13:50:06;;;;;;;;;;;10.60;99.90;;;;;;5072046;28;19930;-68
2023/02/17 13:52:32;;;;;;;;;;;10.60;99.90;;;;;;5071447;28;20285;-67
2023/02/17 13:55:02;;;;;;;;;;;10.50;99.90;;;;;;5071430;28;19908;-64
2023/02/17 13:57:28;;;;;;;;;;;10.60;99.90;;;;;;5071838;28;19908;-68
2023/02/17 14:00:04;;;;;;;;;;;10.50;99.90;;;;;;5071764;28;19955;-68
2023/02/17 14:02:30;;;;;;;;;;;10.50;99.90;;;;;;5072128;28;19909;-66
2023/02/17 14:04:56;;;;;;;;;;;10.70;99.90;;;;;;5053442;28;19934;-65
2023/02/17 14:07:21;;;;;;;;;;;10.80;99.90;;;;;;5072181;28;19913;-69
2023/02/17 14:09:51;;;;;;;;;;;10.70;99.90;;;;;;5062546;28;20046;-70
2023/02/17 14:12:21;;;;;;;;;;;10.70;99.90;;;;;;5068939;28;19916;-68
2023/02/17 14:14:46;;;;;;;;;;;10.50;99.90;;;;;;5070916;28;19908;-66
2023/02/17 14:17:14;;;;;;;;;;;10.60;99.90;;;;;;5070636;28;19942;-66
2023/02/17 14:19:44;;;;;;;;;;;10.50;99.90;;;;;;5070416;28;19909;-66
2023/02/17 14:22:24;;;;;;;;;;;10.50;99.90;;;;;;5070659;28;19916;-66
2023/02/17 14:25:11;;;;;;;;;;;10.50;99.90;;;;;;5070601;28;20282;-67
2023/02/17 14:27:43;;;;;;;;;;;10.60;99.90;;;;;;5071567;28;19915;-68
2023/02/17 14:30:27;;;;;;;;;;;10.70;99.90;;;;;;5071921;28;19908;-68
2023/02/17 14:33:00;;;;;;;;;;;10.60;99.90;;;;;;5061722;28;20004;-68
2023/02/17 14:35:26;;;;;;;;;;;10.60;99.90;;;;;;5074130;28;20061;-68
2023/02/17 14:37:51;;;;;;;;;;;10.50;99.90;;;;;;5071794;28;19962;-67